Pagina principale
METAR-TAF:

METAR-TAF

Aeroporti :

Alpnach, Svizzera

latitudine: 46-56-19N, longitudine: 8-17-03E, altezza: 440 m

Osservazione

Il bollettino è stato emesso 44 minuti fa, alle 09:50 UTC
Vento 4 kt da nord/nord-est, variando fra nord e est/nord-est
Temperature 12°C
Umidità 88%
Pressione 1010 hPa
Visibilità 10 km o più
Poco nuvoloso ad un'altezza di 2300 ft
Nuvoloso ad un'altezza di 4000 ft
Cielo coperto ad un'altezza di 5300 ft
pioggia debole

METAR: LSMA 070950Z AUTO 03004KT 350V070 9999NDV -RA FEW023 BKN040 OVC053 12/10 Q1010 RMK

Ora: 12:34 (10:34 UTC)


TAF: mancante

Osservazioni e previsioni meteorologiche di più di 4000 aeroporti (messaggi METAR e TAF).

Le stazioni disponibili sono rappresentate dai dischi gialli e rossi sulla carta.

Puntare il mouse per vedere il nome della stazione.

Clicca sopra per visualizzare le osservazioni e previsioni meteorologiche.

Per cambiare la mappa : fare clic sui pulsanti verdi con una croce nera per ingrandire, il pulsante verde con un trattino per diminuire, o sulla freccia verde per le mappe adiacenti.


METAR-TAF: